Wellston, Missouri
Current Conditions -  °F | °C
As of 10:51 PM on Saturday 20 Dec 2014 (Local Time) from KSTL Reporting Station
Overcast Overcast  
Wind Chill: 37°   Ceiling: 2800
Heat Index: 42°   Visibility: 10mi
Dew Point: 33°   Wind: 9mph
Humidity: 70%   Direction: 150°SSE
Pressure: 30.24"   Gusts: NA
Location:  38.6807°N, 90.3068°W
Report Text: KSTL 210451Z 15008KT 10SM OVC028 06/01 A3024 RMK AO2 SLP248 T00560006
Loading
Personal Weather Stations






























Interactive Weather Map New forecast layout! Learn more

10-Day Weather Forecast

Advertisements
Track Severe Weather on mobile